Flight Number: EUR1034 Duration: 2:30
Departure: Gibraltar Airport (LXGB) at 18:15 Distance: 927 Nm
Arrival: Gatwick Airport (EGKK) at 20:45 Equipment: B737

Weather Information
Gibraltar, Gibraltar (LXGB) 36-09N 005-21W 0M Sep 21, 2017 - 04:50 PM EDT / 2017.09.21 2050 UTC
Wind: from the NE (040 degrees) at 3 MPH (3 KT):0
Visibility: greater than 7 mile(s):0
Sky conditions: mostly cloudy Temperature: 69 F (21 C) Dew Point: 66 F (19 C) Relative Humidity: 88% Pressure (altimeter): 30.00 in. Hg (1016 hPa)
ob: LXGB 212050Z AUTO 04003KT 9999 // BKN011/// SCT210/// 21/19 Q1016 cycle: 21
Sunrise: 06:11 Sunset: 18:16 (UTC)

London / Gatwick Airport, United Kingdom (EGKK) 51-09N 000-11W 0M Sep 21, 2017 - 05:20 PM EDT / 2017.09.21 2120 UTC
Wind: from the WSW (240 degrees) at 6 MPH (5 KT):0
Visibility: greater than 7 mile(s):0
Sky conditions: mostly clear Temperature: 53 F (12 C) Dew Point: 51 F (11 C) Relative Humidity: 93% Pressure (altimeter): 30.06 in. Hg (1018 hPa)
ob: EGKK 212120Z 24005KT 9999 FEW043 12/11 Q1018 cycle: 21
Sunrise: 05:50 Sunset: 17:57 (UTC)

TAF:2017/09/21 18:15 TAF EGKK 211702Z 2118/2224 21012KT 9999 SCT030 BECMG 2118/2120 28005KT BECMG 2122/2201 7000 TEMPO 2201/2208 3000 BR BCFG PROB40 2203/2208 0400 FG BKN001 BECMG 2208/2211 9999

Previous Pireps for this route
Date Aircraft Flight time Fuel used Landing rate On time
2012-07-22A3212.34352320Yes
2012-10-22A32102.320-976No
2012-10-30B73702.3515895-108No
2012-12-08B73703.0326366-334No
2012-12-11B7373.30177380No
2012-12-19B73702.4013457-575Yes
2013-02-23A32102.4723871-578Yes
2013-03-06A3212.2615429-317No
2013-03-08A32102.3019660-345Yes
2013-08-24A32102.5818907-216No
2013-09-19A3212100670No
2013-11-05A32103.0318549-516No
2015-01-04B7372,30150000Yes
2015-05-28A3212.4213020No
2015-12-07A32102.2423115-155No
2016-01-02A32102.3514533-41Yes
2016-07-26A3212.0320203.80No
2016-10-19B73702.3722283-201No
2017-01-21B73702.2319792-121Yes
(pireps marked green are flown by you)

Route map